Aérodrome :
LOGIN :

S'inscrire | Disclaimer

   EN    FR    IT 

 










Légende :    VFR   VFR Marginal   IFR   IFR Intensif   IFR Très Intensif
Visi : 
Plafond : 
>= 8 km
>= 3000ft
5 à 8 km
1000 à 3000 ft
1500m à 5 km
500 à 1000 ft
800 à 1500m
200 à 500 ft
< 800m
< 200 ft
Symboles :   Orages  Brouillard  Fortes neiges  Fortes précipitations  Vent > 20 kt
SIGMETs :   Divers  Orages  Givrage  Turbulence  Onde Orograph.  Cendres Volcan.






- Altitude de l'aérodrome : 17 ft
- Code IATA : GRS


LIRS - Grosseto

DERNIER METAR :
  • 181855Z 35006KT 9999 SCT025 BKN045 09/07 Q1021 RMK BKN VIS MIN 9999 WIND THR03 36006KT WIND THR21 36006KT BLU

METARs EXPIRÉS :
  • 181755Z 30003KT 9999 SCT015 BKN050 09/07 Q1021
  • 181655Z 35005KT 9999 SCT015 BKN040 10/07 Q1021 RMK BKN VIS MIN 9999 WIND THR03 34004KT WIND THR21 36006KT BLU

TAF TAF LIRS
Valide du 18 à 18h jusqu'au 19 à 03h UTC


181700Z 1818/1903 01005KT 9999 FEW025 SCT050



MET'MAP, la Météo Aéronautique d'un coup d'oeil ! - Copyright ORBIFLY Décembre 2007 - Disclaimer

ORBIFLY MET'MAP TEAM :

Programmation & Développement : Alexandra Zaïnal
Sur une idée originale de : Baudouin d'Aumeries
Assistance à la programmation : Marc-Olivier Méhu
Soutien technique & logistique : Manuel Goepfert

Contact : metmap@orbifly.com




SOURCES & CREDITS :

   NOAA